Time;durP1;ratioP1;P1;durP2;ratioP2;P2;SDS_P1;SDS_P2;PMS_P1;PMS_P2;Temp;Humidity;BMP_temperature;BMP_pressure;BME280_temperature;BME280_humidity;BME280_pressure;Samples;Min_cycle;Max_cycle;Signal;HPM_P1;HPM_P2
2021/04/05 00:04:17;;;;;;;7.87;6.60;;;8.80;57.20;;;;;;10576819;27;20210;-76
2021/04/05 00:09:18;;;;;;;9.37;5.87;;;8.70;57.20;;;;;;10601641;27;20207;-76
2021/04/05 00:14:20;;;;;;;7.33;6.60;;;8.70;57.50;;;;;;10620136;27;20705;-76
2021/04/05 00:19:23;;;;;;;9.33;5.87;;;8.60;57.80;;;;;;10619836;27;20189;-76
2021/04/05 00:24:25;;;;;;;9.47;6.90;;;8.50;58.20;;;;;;10619617;27;20207;-76
2021/04/05 00:29:26;;;;;;;6.60;6.00;;;8.30;58.50;;;;;;10602530;28;20347;-78
2021/04/05 00:34:29;;;;;;;5.93;5.33;;;8.20;58.70;;;;;;10642308;28;20214;-78
2021/04/05 00:39:31;;;;;;;8.03;6.50;;;8.10;59.20;;;;;;10628607;28;20243;-78
2021/04/05 00:44:32;;;;;;;11.80;7.17;;;8.10;59.30;;;;;;10638728;28;20219;-78
2021/04/05 00:49:35;;;;;;;6.10;5.40;;;8.20;58.90;;;;;;10636051;28;20215;-78
2021/04/05 00:54:37;;;;;;;6.50;5.80;;;8.40;57.90;;;;;;10634455;28;20251;-79
2021/04/05 00:59:39;;;;;;;8.07;5.73;;;8.50;57.80;;;;;;10615355;28;20524;-78
2021/04/05 01:04:42;;;;;;;7.53;5.20;;;8.50;57.70;;;;;;10615066;27;20245;-78
2021/04/05 01:09:43;;;;;;;7.80;6.40;;;8.50;57.60;;;;;;10619757;27;20495;-78
2021/04/05 01:14:45;;;;;;;7.27;5.80;;;8.60;57.60;;;;;;10645626;27;20218;-78
2021/04/05 01:19:48;;;;;;;7.63;5.40;;;8.60;57.00;;;;;;10637378;27;20606;-78
2021/04/05 01:24:51;;;;;;;6.37;5.27;;;8.70;57.40;;;;;;10620916;27;20218;-78
2021/04/05 01:29:52;;;;;;;7.60;5.37;;;8.80;57.30;;;;;;10602016;27;20219;-78
2021/04/05 01:34:54;;;;;;;5.60;4.87;;;8.90;57.30;;;;;;10630604;27;20567;-78
2021/04/05 01:39:56;;;;;;;8.20;5.00;;;9.00;57.20;;;;;;10631213;27;20265;-76
2021/04/05 01:44:59;;;;;;;6.90;5.40;;;9.10;57.30;;;;;;10620312;27;20226;-78
2021/04/05 01:50:00;;;;;;;6.67;5.13;;;9.10;57.60;;;;;;10603361;27;20713;-78
2021/04/05 01:55:04;;;;;;;7.50;5.37;;;9.10;57.70;;;;;;10625530;27;20266;-78
2021/04/05 02:00:12;;;;;;;7.00;5.80;;;9.00;57.80;;;;;;10619456;27;20208;-77
2021/04/05 02:05:16;;;;;;;5.20;4.70;;;9.00;57.50;;;;;;10628297;27;20244;-77
2021/04/05 02:10:22;;;;;;;6.17;5.03;;;8.90;57.90;;;;;;10612776;27;20221;-78
2021/04/05 02:15:25;;;;;;;7.73;6.10;;;8.80;58.20;;;;;;10608265;27;20222;-78
2021/04/05 02:20:27;;;;;;;6.50;5.10;;;8.70;57.80;;;;;;10631160;27;20186;-78
2021/04/05 02:25:31;;;;;;;6.57;5.17;;;8.70;58.10;;;;;;10628182;27;20297;-78
2021/04/05 02:30:33;;;;;;;8.10;5.70;;;8.50;58.30;;;;;;10637057;27;20285;-78
2021/04/05 02:35:35;;;;;;;9.53;5.43;;;8.40;58.00;;;;;;10631422;27;20214;-78
2021/04/05 02:40:38;;;;;;;7.17;5.10;;;8.40;58.50;;;;;;10629708;27;20211;-77
2021/04/05 02:45:40;;;;;;;8.03;6.10;;;8.40;58.40;;;;;;10630007;27;20218;-79
2021/04/05 02:50:42;;;;;;;8.80;5.50;;;8.40;58.60;;;;;;10612570;27;20561;-79
2021/04/05 02:55:45;;;;;;;6.43;5.10;;;8.50;58.60;;;;;;10626366;27;20698;-79
2021/04/05 03:00:47;;;;;;;6.63;5.73;;;8.50;58.80;;;;;;10586160;28;20628;-78
2021/04/05 03:05:49;;;;;;;6.13;5.53;;;8.60;58.70;;;;;;10560201;28;20214;-78
2021/04/05 03:10:55;;;;;;;7.77;5.03;;;8.60;58.50;;;;;;10569791;28;20355;-78
2021/04/05 03:15:57;;;;;;;6.03;5.53;;;8.60;58.50;;;;;;10590699;28;20625;-78
2021/04/05 03:20:59;;;;;;;7.90;5.20;;;8.50;58.70;;;;;;10587531;28;20202;-77
2021/04/05 03:26:02;;;;;;;7.83;4.90;;;8.40;58.90;;;;;;10575264;28;20230;-78
2021/04/05 03:31:09;;;;;;;6.30;5.70;;;8.30;59.10;;;;;;10588209;28;20278;-79
2021/04/05 03:36:15;;;;;;;7.53;5.70;;;8.20;59.30;;;;;;10583795;28;20214;-78
2021/04/05 03:41:25;;;;;;;6.20;5.60;;;8.00;59.80;;;;;;10585961;28;20199;-78
2021/04/05 03:46:31;;;;;;;7.10;5.70;;;7.90;60.70;;;;;;10584602;28;20292;-78
2021/04/05 03:51:38;;;;;;;6.90;6.10;;;7.90;60.20;;;;;;10550099;28;20195;-79
2021/04/05 03:56:43;;;;;;;7.73;5.63;;;7.90;60.70;;;;;;10566077;28;20238;-79
2021/04/05 04:01:48;;;;;;;9.10;5.40;;;7.90;61.20;;;;;;10566277;28;20603;-79
2021/04/05 04:06:59;;;;;;;8.07;5.33;;;8.00;60.90;;;;;;10548210;28;20310;-79
2021/04/05 04:12:02;;;;;;;6.77;6.07;;;8.00;60.50;;;;;;10586068;28;20252;-78
2021/04/05 04:17:07;;;;;;;7.37;6.07;;;8.10;60.30;;;;;;10566264;28;20191;-79
2021/04/05 04:22:09;;;;;;;9.23;6.00;;;8.10;60.00;;;;;;10568535;28;20206;-79
2021/04/05 04:27:14;;;;;;;6.23;5.57;;;8.00;59.70;;;;;;10568087;28;20233;-77
2021/04/05 04:32:16;;;;;;;6.47;5.60;;;7.90;59.90;;;;;;10564737;28;20233;-79
2021/04/05 04:37:18;;;;;;;8.47;5.67;;;7.80;59.80;;;;;;10567464;28;20629;-78
2021/04/05 04:42:21;;;;;;;8.23;5.70;;;7.80;59.60;;;;;;10594684;28;20222;-79
2021/04/05 04:47:23;;;;;;;9.70;5.50;;;7.80;59.50;;;;;;10575592;28;20282;-79
2021/04/05 04:52:24;;;;;;;7.27;5.67;;;7.80;58.90;;;;;;10594878;28;20328;-79
2021/04/05 04:57:27;;;;;;;6.27;5.17;;;7.90;59.00;;;;;;10594717;28;20229;-79
2021/04/05 05:02:30;;;;;;;6.23;5.20;;;8.00;59.20;;;;;;10576064;28;20219;-79
2021/04/05 05:07:34;;;;;;;8.10;5.47;;;8.00;59.00;;;;;;10562557;28;20225;-79
2021/04/05 05:12:37;;;;;;;5.60;5.03;;;8.10;59.30;;;;;;10587694;28;20203;-78
2021/04/05 05:17:41;;;;;;;9.37;5.40;;;8.20;59.30;;;;;;10594533;28;20195;-78
2021/04/05 05:22:45;;;;;;;8.13;5.77;;;8.30;58.90;;;;;;10591073;28;20204;-78
2021/04/05 05:27:50;;;;;;;5.53;5.03;;;8.40;58.20;;;;;;10572320;28;20846;-79
2021/04/05 05:32:54;;;;;;;9.67;5.47;;;8.50;58.40;;;;;;10582797;28;20299;-77
2021/04/05 05:38:00;;;;;;;6.73;5.83;;;8.70;58.40;;;;;;10590380;28;20179;-78
2021/04/05 05:43:12;;;;;;;7.67;4.93;;;8.90;57.50;;;;;;10588996;28;20271;-78
2021/04/05 05:48:22;;;;;;;11.93;5.10;;;9.00;57.70;;;;;;10588507;28;20239;-78
2021/04/05 05:53:35;;;;;;;5.80;5.23;;;9.20;58.20;;;;;;10571140;28;20222;-79
2021/04/05 05:58:45;;;;;;;6.83;4.90;;;9.30;57.90;;;;;;10570883;28;20243;-78
2021/04/05 06:03:57;;;;;;;7.53;5.50;;;9.30;56.70;;;;;;10589524;28;20219;-79
2021/04/05 06:09:08;;;;;;;4.90;4.50;;;9.30;57.00;;;;;;10572177;28;20242;-78
2021/04/05 06:14:35;;;;;;;6.47;5.20;;;9.40;57.20;;;;;;10599955;27;20225;-78
2021/04/05 06:19:53;;;;;;;5.70;4.97;;;9.40;57.00;;;;;;10590410;27;20191;-79
2021/04/05 06:25:03;;;;;;;6.60;5.00;;;9.50;56.70;;;;;;10606657;27;20214;-78
2021/04/05 06:30:12;;;;;;;10.40;6.20;;;9.60;56.90;;;;;;10630964;27;20214;-79
2021/04/05 06:35:42;;;;;;;6.13;5.10;;;9.70;56.80;;;;;;10616772;27;20222;-79
2021/04/05 06:40:45;;;;;;;7.27;5.10;;;9.80;56.20;;;;;;10523345;28;20470;-79
2021/04/05 06:46:04;;;;;;;5.63;4.93;;;10.00;55.90;;;;;;10546123;28;20230;-79
2021/04/05 06:51:18;;;;;;;10.07;5.93;;;10.10;55.20;;;;;;10529636;28;20219;-79
2021/04/05 06:56:30;;;;;;;8.17;5.00;;;10.30;54.40;;;;;;10548463;27;20310;-79
2021/04/05 07:01:50;;;;;;;8.27;4.80;;;10.40;54.40;;;;;;10614324;27;20273;-79
2021/04/05 07:06:56;;;;;;;6.50;4.50;;;10.60;53.50;;;;;;10631482;27;20210;-79
2021/04/05 07:12:34;;;;;;;6.40;4.70;;;10.70;53.40;;;;;;10615749;27;20222;-79
2021/04/05 07:17:46;;;;;;;6.10;4.93;;;10.80;53.30;;;;;;10590625;27;20670;-78
2021/04/05 07:23:05;;;;;;;7.70;5.23;;;10.90;53.10;;;;;;10589081;27;20225;-78
2021/04/05 07:28:15;;;;;;;6.97;5.80;;;11.00;53.20;;;;;;10543576;28;20601;-78
2021/04/05 07:33:34;;;;;;;8.57;5.20;;;11.20;52.90;;;;;;10578074;27;20222;-78
2021/04/05 07:38:44;;;;;;;5.50;5.00;;;11.30;53.70;;;;;;10549689;27;20188;-77
2021/04/05 07:44:12;;;;;;;6.70;5.10;;;11.40;53.20;;;;;;10558493;28;20703;-78
2021/04/05 07:49:20;;;;;;;13.67;5.17;;;11.40;53.20;;;;;;10538691;28;20247;-78
2021/04/05 07:54:24;;;;;;;7.60;5.30;;;11.60;52.80;;;;;;10545742;28;20683;-78
2021/04/05 07:59:38;;;;;;;7.27;4.83;;;11.70;53.50;;;;;;10560601;28;20191;-76
2021/04/05 08:04:49;;;;;;;10.83;5.47;;;12.00;52.40;;;;;;10541371;28;20227;-77
2021/04/05 08:10:00;;;;;;;7.33;4.50;;;12.10;52.80;;;;;;10523122;28;20594;-77
2021/04/05 08:15:18;;;;;;;5.70;3.93;;;12.30;52.10;;;;;;10539205;28;20686;-77
2021/04/05 08:20:27;;;;;;;8.60;5.27;;;12.50;52.30;;;;;;10564316;28;20702;-78
2021/04/05 08:25:44;;;;;;;6.50;4.40;;;12.80;52.80;;;;;;10545381;28;20235;-78
2021/04/05 08:30:56;;;;;;;5.33;4.83;;;13.10;52.40;;;;;;10550559;28;20246;-78
2021/04/05 08:36:10;;;;;;;5.00;3.73;;;13.50;52.40;;;;;;10537251;28;20216;-77
2021/04/05 08:41:24;;;;;;;10.53;5.40;;;13.90;51.80;;;;;;10536013;28;20192;-78
2021/04/05 08:46:30;;;;;;;5.20;4.03;;;14.20;51.00;;;;;;10598023;22;20227;-77
2021/04/05 08:51:36;;;;;;;5.43;3.40;;;14.50;50.30;;;;;;10582819;28;20187;-78
2021/04/05 08:56:44;;;;;;;5.67;3.57;;;14.50;47.40;;;;;;10581202;28;20273;-77
2021/04/05 09:01:50;;;;;;;5.33;2.73;;;14.60;46.90;;;;;;10585044;28;20225;-76
2021/04/05 09:07:02;;;;;;;5.80;3.27;;;14.60;45.30;;;;;;10583622;28;20222;-78
2021/04/05 09:12:06;;;;;;;7.30;3.00;;;14.70;45.20;;;;;;10583571;28;20254;-77
2021/04/05 09:17:49;;;;;;;4.13;3.23;;;14.60;45.40;;;;;;10582990;28;20211;-77
2021/04/05 09:23:15;;;;;;;4.50;3.90;;;14.50;45.60;;;;;;10571308;28;20293;-77
2021/04/05 09:28:38;;;;;;;7.77;3.97;;;14.30;45.70;;;;;;10546071;28;20631;-77
2021/04/05 09:34:14;;;;;;;6.07;3.37;;;14.20;45.90;;;;;;10562849;28;20230;-77
2021/04/05 09:39:29;;;;;;;6.37;4.00;;;14.20;46.20;;;;;;10590469;28;20205;-76
2021/04/05 09:45:00;;;;;;;5.70;4.20;;;14.20;46.80;;;;;;10547660;28;20251;-77
2021/04/05 09:50:17;;;;;;;7.10;4.70;;;14.30;45.40;;;;;;10547342;28;20243;-77
2021/04/05 09:55:25;;;;;;;4.03;3.60;;;14.40;45.90;;;;;;10533213;28;20211;-77
2021/04/05 10:00:28;;;;;;;4.57;3.37;;;14.40;44.30;;;;;;10582324;28;20199;-77
2021/04/05 10:05:33;;;;;;;3.57;2.90;;;14.40;43.80;;;;;;10567983;28;20568;-77
2021/04/05 10:10:37;;;;;;;5.50;3.43;;;14.50;42.70;;;;;;10549360;28;20261;-77
2021/04/05 10:15:40;;;;;;;5.43;2.87;;;14.50;42.50;;;;;;10547817;28;20211;-77
2021/04/05 10:20:46;;;;;;;7.87;4.60;;;14.50;43.60;;;;;;10574586;28;20198;-78
2021/04/05 10:25:54;;;;;;;4.77;3.50;;;14.60;42.60;;;;;;10550004;28;20236;-77
2021/04/05 10:30:58;;;;;;;8.70;3.57;;;14.60;42.90;;;;;;10547468;28;20218;-77
2021/04/05 10:36:04;;;;;;;6.50;4.37;;;14.70;43.10;;;;;;10547578;28;20593;-78
2021/04/05 10:41:09;;;;;;;8.13;4.40;;;14.70;41.30;;;;;;10572903;28;20605;-78
2021/04/05 10:46:14;;;;;;;4.80;3.20;;;14.70;41.40;;;;;;10570291;28;20218;-77
2021/04/05 10:51:20;;;;;;;4.40;4.00;;;14.80;40.60;;;;;;10528444;28;20699;-77
2021/04/05 10:56:24;;;;;;;5.30;3.70;;;14.70;40.20;;;;;;10563864;28;20211;-77
2021/04/05 11:01:27;;;;;;;13.57;7.00;;;14.80;39.60;;;;;;10545644;28;20570;-78
2021/04/05 11:06:31;;;;;;;11.23;6.30;;;14.90;40.30;;;;;;10546993;28;20712;-77
2021/04/05 11:11:34;;;;;;;3.93;3.53;;;14.90;40.00;;;;;;10546504;28;20251;-78
2021/04/05 11:16:36;;;;;;;5.07;3.70;;;14.80;39.60;;;;;;10527577;28;20298;-78
2021/04/05 11:21:44;;;;;;;5.60;3.77;;;14.80;39.80;;;;;;10574809;28;20229;-77
2021/04/05 11:26:47;;;;;;;5.23;3.27;;;14.90;39.80;;;;;;10570294;28;20535;-77
2021/04/05 11:31:50;;;;;;;5.40;3.80;;;14.90;40.00;;;;;;10557536;28;20191;-78
2021/04/05 11:36:56;;;;;;;7.70;4.57;;;15.00;40.80;;;;;;10543948;28;20594;-78
2021/04/05 11:42:02;;;;;;;16.03;5.23;;;15.00;42.70;;;;;;10561034;28;20193;-77
2021/04/05 11:47:07;;;;;;;11.37;4.57;;;15.00;43.50;;;;;;10542801;28;20218;-77
2021/04/05 11:52:15;;;;;;;7.00;4.97;;;15.10;44.20;;;;;;10559334;28;20192;-77
2021/04/05 11:57:35;;;;;;;7.50;6.77;;;15.30;44.40;;;;;;10545165;28;20320;-77
2021/04/05 12:02:45;;;;;;;8.63;5.47;;;15.30;44.90;;;;;;10551454;28;20202;-77
2021/04/05 12:07:49;;;;;;;8.27;6.03;;;15.20;45.60;;;;;;10582473;28;20252;-78
2021/04/05 12:12:57;;;;;;;7.83;6.13;;;15.00;45.90;;;;;;10567055;28;20218;-77
2021/04/05 12:18:01;;;;;;;9.10;5.90;;;14.90;46.20;;;;;;10583942;28;20210;-78
2021/04/05 12:23:06;;;;;;;10.27;6.67;;;14.80;46.50;;;;;;10584020;28;20211;-77
2021/04/05 12:28:10;;;;;;;9.07;6.80;;;14.70;47.20;;;;;;10583154;28;20540;-77
2021/04/05 12:33:18;;;;;;;8.13;7.10;;;14.60;48.00;;;;;;10583487;28;20678;-77
2021/04/05 12:38:27;;;;;;;9.03;7.23;;;14.50;48.70;;;;;;10565265;28;20286;-77
2021/04/05 12:43:34;;;;;;;11.67;7.47;;;14.50;49.80;;;;;;10565256;28;20284;-77
2021/04/05 12:48:38;;;;;;;9.23;7.37;;;14.40;50.30;;;;;;10582776;28;20246;-77
2021/04/05 12:53:42;;;;;;;9.93;8.30;;;14.30;50.00;;;;;;10570664;28;20219;-77
2021/04/05 12:58:52;;;;;;;10.97;8.50;;;14.10;51.10;;;;;;10560306;28;20199;-77
2021/04/05 13:03:54;;;;;;;15.43;8.90;;;13.90;51.40;;;;;;10573004;28;20215;-77
2021/04/05 13:09:02;;;;;;;15.30;8.93;;;13.60;52.10;;;;;;10572504;28;20233;-77
2021/04/05 13:14:18;;;;;;;14.23;9.57;;;13.60;52.50;;;;;;10590098;28;20215;-77
2021/04/05 13:19:25;;;;;;;11.70;9.90;;;13.70;52.80;;;;;;10585353;27;20254;-77
2021/04/05 13:24:33;;;;;;;11.67;9.00;;;13.80;51.90;;;;;;10557756;28;20222;-76
2021/04/05 13:29:38;;;;;;;10.50;8.20;;;13.70;52.00;;;;;;10552881;28;20215;-78
2021/04/05 13:34:41;;;;;;;11.33;8.37;;;13.70;51.80;;;;;;10598422;27;20211;-76
2021/04/05 13:39:44;;;;;;;12.53;9.13;;;13.70;52.00;;;;;;10632516;27;20274;-78
2021/04/05 13:44:51;;;;;;;11.67;9.20;;;13.60;51.70;;;;;;10617164;27;20243;-76
2021/04/05 13:49:55;;;;;;;9.60;8.07;;;13.50;51.80;;;;;;10582228;28;20219;-77
2021/04/05 13:54:59;;;;;;;12.47;8.97;;;13.40;52.50;;;;;;10590625;28;20746;-80
2021/04/05 14:00:07;;;;;;;11.10;8.37;;;13.40;52.40;;;;;;10561500;28;20216;-80
2021/04/05 14:05:14;;;;;;;12.47;8.70;;;13.30;52.40;;;;;;10564376;28;20726;-80
2021/04/05 14:10:21;;;;;;;9.93;7.23;;;13.30;51.90;;;;;;10570586;28;20214;-80
2021/04/05 14:15:26;;;;;;;11.20;8.10;;;13.20;54.20;;;;;;10581246;28;20258;-80
2021/04/05 14:20:31;;;;;;;8.50;7.50;;;13.10;52.80;;;;;;10549503;28;20286;-80
2021/04/05 14:25:35;;;;;;;8.40;6.20;;;13.00;52.40;;;;;;10587409;28;20212;-80
2021/04/05 14:30:40;;;;;;;8.07;6.43;;;12.90;53.00;;;;;;10582206;28;20239;-80
2021/04/05 14:35:44;;;;;;;8.70;7.80;;;12.70;55.90;;;;;;10585667;28;20218;-80
2021/04/05 14:40:48;;;;;;;10.73;7.53;;;12.50;59.00;;;;;;10572147;28;20195;-80
2021/04/05 14:45:53;;;;;;;10.73;9.13;;;12.30;62.30;;;;;;10573676;28;20231;-80
2021/04/05 14:50:55;;;;;;;9.83;8.87;;;12.10;66.60;;;;;;10577513;28;20219;-79
2021/04/05 14:56:03;;;;;;;13.07;10.00;;;11.80;69.80;;;;;;10569690;28;20287;-80
2021/04/05 15:01:10;;;;;;;15.13;9.90;;;11.40;73.20;;;;;;10570237;28;20199;-80
2021/04/05 15:06:14;;;;;;;11.37;10.17;;;11.00;75.00;;;;;;10584640;28;20275;-80
2021/04/05 15:11:19;;;;;;;9.87;8.80;;;10.70;76.30;;;;;;10584308;28;20223;-80
2021/04/05 15:16:25;;;;;;;9.30;6.93;;;10.40;77.80;;;;;;10551308;28;20211;-79
2021/04/05 15:21:30;;;;;;;5.10;4.60;;;10.00;79.20;;;;;;10567662;28;20222;-80
2021/04/05 15:26:34;;;;;;;2.13;2.03;;;9.70;81.40;;;;;;10547759;28;20251;-80
2021/04/05 15:31:39;;;;;;;2.00;1.90;;;9.10;75.50;;;;;;10540524;28;20695;-81
2021/04/05 15:36:41;;;;;;;2.53;2.37;;;8.40;75.50;;;;;;10523363;28;20212;-80
2021/04/05 15:41:45;;;;;;;2.80;2.70;;;7.80;77.80;;;;;;10571249;28;20192;-81
2021/04/05 15:46:56;;;;;;;3.73;3.53;;;7.30;81.70;;;;;;10561817;28;20227;-81
2021/04/05 15:52:04;;;;;;;3.73;3.63;;;7.10;83.80;;;;;;10560523;28;20265;-81
2021/04/05 15:57:25;;;;;;;3.70;3.50;;;6.90;85.20;;;;;;10554790;28;20271;-81
2021/04/05 16:02:34;;;;;;;3.73;3.63;;;6.70;85.60;;;;;;10583607;28;20666;-80
2021/04/05 16:07:41;;;;;;;3.80;3.57;;;6.50;87.10;;;;;;10583813;28;20195;-81
2021/04/05 16:12:48;;;;;;;3.87;3.67;;;6.40;88.10;;;;;;10564087;28;20254;-80
2021/04/05 16:17:58;;;;;;;4.27;4.07;;;6.30;88.40;;;;;;10540666;28;20201;-81
2021/04/05 16:23:04;;;;;;;4.57;4.27;;;6.20;89.60;;;;;;10540557;28;20207;-80
2021/04/05 16:28:10;;;;;;;4.33;4.03;;;6.00;90.00;;;;;;10540829;28;20208;-80
2021/04/05 16:33:18;;;;;;;6.97;4.47;;;5.60;88.40;;;;;;10520813;28;20238;-82
2021/04/05 16:38:27;;;;;;;5.40;5.00;;;5.30;90.20;;;;;;10524886;28;20262;-81
2021/04/05 16:43:35;;;;;;;8.90;5.27;;;5.10;91.20;;;;;;10525471;28;20235;-80
2021/04/05 16:48:38;;;;;;;18.27;12.50;;;5.00;92.90;;;;;;10543263;28;20211;-80
2021/04/05 16:53:43;;;;;;;5.80;5.30;;;5.00;93.30;;;;;;10564174;28;20225;-80
2021/04/05 16:58:52;;;;;;;6.20;5.60;;;5.00;93.80;;;;;;10581915;28;20174;-80
2021/04/05 17:03:59;;;;;;;5.40;5.00;;;5.00;94.10;;;;;;10581391;28;20219;-80
2021/04/05 17:09:05;;;;;;;5.57;5.07;;;5.00;94.50;;;;;;10560542;28;20302;-80
2021/04/05 17:14:12;;;;;;;5.10;4.70;;;5.00;95.40;;;;;;10562317;28;20290;-80
2021/04/05 17:19:23;;;;;;;6.47;5.97;;;4.90;94.70;;;;;;10582145;28;20195;-80
2021/04/05 17:24:27;;;;;;;4.90;4.60;;;4.90;95.80;;;;;;10582954;28;20306;-80
2021/04/05 17:29:38;;;;;;;3.90;3.80;;;4.90;96.00;;;;;;10525059;28;20208;-80
2021/04/05 17:34:51;;;;;;;4.50;4.20;;;4.90;96.90;;;;;;10540618;28;20295;-80
2021/04/05 17:39:54;;;;;;;3.57;3.40;;;4.90;97.60;;;;;;10551051;28;20222;-81
2021/04/05 17:45:00;;;;;;;3.70;3.50;;;4.90;97.50;;;;;;10585567;28;20226;-80
2021/04/05 17:50:13;;;;;;;4.00;3.80;;;4.80;97.60;;;;;;10593706;28;20302;-80
2021/04/05 17:55:18;;;;;;;4.57;3.87;;;4.80;97.70;;;;;;10592114;28;20238;-80
2021/04/05 18:00:27;;;;;;;4.93;4.33;;;4.80;98.40;;;;;;10586412;27;20256;-80
2021/04/05 18:05:52;;;;;;;4.03;3.70;;;4.80;98.80;;;;;;10570452;28;20244;-80
2021/04/05 18:11:11;;;;;;;6.57;4.30;;;4.80;99.00;;;;;;10589868;28;20199;-80
2021/04/05 18:16:21;;;;;;;4.20;4.00;;;4.90;99.70;;;;;;10609267;27;20241;-80
2021/04/05 18:22:05;;;;;;;4.67;4.27;;;4.90;99.90;;;;;;10612576;27;20286;-80
2021/04/05 18:27:19;;;;;;;4.37;4.07;;;4.90;99.90;;;;;;10613398;27;20214;-80
2021/04/05 18:32:31;;;;;;;4.30;4.00;;;4.90;99.80;;;;;;10541765;28;20199;-80
2021/04/05 18:37:38;;;;;;;5.33;4.43;;;4.90;99.80;;;;;;10537095;28;20219;-80
2021/04/05 18:42:42;;;;;;;3.97;3.73;;;4.90;99.90;;;;;;10528505;28;20184;-80
2021/04/05 18:47:49;;;;;;;5.13;4.73;;;4.90;99.90;;;;;;10525729;28;20208;-80
2021/04/05 18:52:57;;;;;;;8.10;5.00;;;4.90;99.90;;;;;;10547784;28;20553;-80
2021/04/05 18:58:01;;;;;;;4.43;4.03;;;4.90;99.90;;;;;;10525116;28;20624;-80
2021/04/05 19:03:11;;;;;;;4.13;3.90;;;5.00;99.90;;;;;;10547528;28;20208;-80
2021/04/05 19:08:24;;;;;;;4.33;3.80;;;5.00;99.90;;;;;;10573190;28;20286;-80
2021/04/05 19:13:35;;;;;;;4.20;3.80;;;5.00;99.90;;;;;;10587658;28;20207;-80
2021/04/05 19:18:48;;;;;;;4.17;3.80;;;5.00;99.90;;;;;;10569056;28;20206;-80
2021/04/05 19:24:15;;;;;;;4.03;3.67;;;5.10;99.80;;;;;;10586392;28;20301;-80
2021/04/05 19:29:41;;;;;;;3.93;3.53;;;5.10;99.50;;;;;;10569169;28;20215;-80
2021/04/05 19:35:12;;;;;;;6.63;3.90;;;5.20;99.40;;;;;;10586129;28;20225;-80
2021/04/05 19:40:40;;;;;;;5.13;4.57;;;5.30;98.60;;;;;;10585118;28;20183;-80
2021/04/05 19:46:09;;;;;;;8.50;3.77;;;5.30;98.30;;;;;;10580694;28;20243;-80
2021/04/05 19:51:39;;;;;;;4.00;3.70;;;5.40;98.40;;;;;;10583999;28;20269;-80
2021/04/05 19:56:57;;;;;;;4.07;3.50;;;5.40;97.40;;;;;;10570687;28;20207;-80
2021/04/05 20:02:09;;;;;;;3.87;3.40;;;5.40;97.60;;;;;;10567479;28;20186;-80
2021/04/05 20:07:24;;;;;;;4.67;3.57;;;5.40;97.20;;;;;;10585067;28;20211;-80
2021/04/05 20:12:41;;;;;;;5.00;3.40;;;5.50;97.00;;;;;;10590587;28;20195;-80
2021/04/05 20:17:49;;;;;;;4.73;3.40;;;5.50;96.40;;;;;;10586919;28;20218;-80
2021/04/05 20:22:59;;;;;;;3.67;3.37;;;5.50;96.20;;;;;;10586689;28;20335;-80
2021/04/05 20:28:20;;;;;;;8.27;4.10;;;5.60;95.90;;;;;;10584012;28;20293;-80
2021/04/05 20:33:37;;;;;;;5.70;5.20;;;5.60;95.80;;;;;;10587494;28;20227;-80
2021/04/05 20:38:44;;;;;;;4.47;3.40;;;5.50;95.80;;;;;;10574900;28;20655;-81
2021/04/05 20:43:49;;;;;;;5.33;3.30;;;5.50;95.90;;;;;;10600473;22;20219;-80
2021/04/05 20:48:58;;;;;;;5.70;4.00;;;5.50;95.00;;;;;;10532539;28;20306;-80
2021/04/05 20:54:08;;;;;;;10.63;3.57;;;5.60;95.20;;;;;;10504268;28;20224;-78
2021/04/05 20:59:14;;;;;;;3.70;3.40;;;5.60;95.10;;;;;;10535446;28;20196;-79
2021/04/05 21:04:17;;;;;;;5.30;4.00;;;5.60;93.50;;;;;;10500919;28;20220;-76
2021/04/05 21:09:26;;;;;;;3.67;3.03;;;5.60;94.50;;;;;;10475003;28;20203;-78
2021/04/05 21:14:35;;;;;;;3.83;3.33;;;5.70;94.20;;;;;;10519534;28;20216;-78
2021/04/05 21:19:41;;;;;;;4.77;3.50;;;5.70;93.50;;;;;;10505213;28;20195;-78
2021/04/05 21:24:47;;;;;;;7.00;3.40;;;5.70;93.40;;;;;;10503816;28;20296;-78
2021/04/05 21:29:53;;;;;;;5.90;2.83;;;5.60;92.40;;;;;;10486264;28;20208;-78
2021/04/05 21:35:01;;;;;;;4.90;3.07;;;5.60;92.80;;;;;;10539290;28;20211;-78
2021/04/05 21:40:07;;;;;;;4.97;3.00;;;5.50;91.50;;;;;;10557695;28;20194;-78
2021/04/05 21:45:14;;;;;;;3.80;3.43;;;5.40;91.50;;;;;;10566572;28;20224;-78
2021/04/05 21:50:16;;;;;;;3.53;3.23;;;5.30;90.90;;;;;;10577646;28;20750;-78
2021/04/05 21:55:28;;;;;;;4.67;3.20;;;5.20;91.70;;;;;;10569020;28;20207;-78
2021/04/05 22:00:39;;;;;;;3.70;3.40;;;5.20;91.20;;;;;;10550539;28;20195;-79
2021/04/05 22:05:48;;;;;;;2.93;2.60;;;5.10;91.10;;;;;;10526864;28;20261;-77
2021/04/05 22:10:57;;;;;;;3.33;2.87;;;5.10;90.90;;;;;;10511665;28;20207;-78
2021/04/05 22:16:08;;;;;;;3.47;2.57;;;5.00;91.20;;;;;;10509824;28;20246;-78
2021/04/05 22:21:21;;;;;;;5.13;2.97;;;5.00;91.10;;;;;;10524351;28;20172;-77
2021/04/05 22:26:26;;;;;;;4.73;2.83;;;4.90;90.20;;;;;;10523892;28;20212;-77
2021/04/05 22:31:30;;;;;;;2.60;2.40;;;4.90;88.90;;;;;;10522872;28;20205;-77
2021/04/05 22:36:46;;;;;;;3.43;2.90;;;4.80;89.80;;;;;;10527392;28;20216;-78
2021/04/05 22:41:50;;;;;;;3.53;2.70;;;4.80;89.20;;;;;;10537289;28;20195;-78
2021/04/05 22:46:56;;;;;;;4.43;2.70;;;4.80;87.10;;;;;;10506687;28;20219;-77
2021/04/05 22:52:08;;;;;;;4.13;2.90;;;4.80;87.20;;;;;;10543247;28;20249;-78
2021/04/05 22:57:15;;;;;;;3.13;2.40;;;4.70;86.50;;;;;;10523170;28;20262;-77
2021/04/05 23:02:27;;;;;;;4.43;2.53;;;4.70;87.20;;;;;;10523022;28;20200;-79
2021/04/05 23:07:32;;;;;;;4.00;2.50;;;4.70;85.70;;;;;;10522289;28;20207;-77
2021/04/05 23:12:39;;;;;;;6.90;2.43;;;4.60;84.50;;;;;;10505804;28;20754;-78
2021/04/05 23:17:47;;;;;;;3.43;2.70;;;4.60;84.60;;;;;;10541583;28;20207;-79
2021/04/05 23:22:54;;;;;;;2.03;1.90;;;4.60;82.70;;;;;;10522589;28;20702;-78
2021/04/05 23:28:01;;;;;;;5.30;2.20;;;4.60;82.90;;;;;;10506646;28;20238;-79
2021/04/05 23:33:10;;;;;;;3.10;2.03;;;4.50;80.30;;;;;;10540307;28;20220;-77
2021/04/05 23:38:20;;;;;;;2.23;1.67;;;4.50;79.50;;;;;;10552708;28;20688;-77
2021/04/05 23:43:24;;;;;;;2.37;2.17;;;4.40;76.80;;;;;;10518624;28;20349;-77
2021/04/05 23:48:39;;;;;;;2.90;1.97;;;4.30;79.20;;;;;;10539675;28;20282;-78
2021/04/05 23:53:45;;;;;;;2.10;2.00;;;4.30;80.00;;;;;;10504550;28;20281;-77
2021/04/05 23:58:57;;;;;;;1.60;1.50;;;4.30;78.90;;;;;;10504666;28;20279;-78
